Bavaria, Kansas
Current Conditions -  °F | °C
As of 9:53 AM on Saturday 20 Dec 2014 (Local Time) from KSLN Reporting Station
Haze Haze  
Wind Chill: 31°   Ceiling: Unl
Heat Index: 36°   Visibility: 4mi
Dew Point: 34°   Wind: 6mph
Humidity: 93%   Direction: 190°S
Pressure: 30.13"   Gusts: NA
Location:  38.8424°N, 97.6193°W
Report Text: KSLN 201553Z 19005KT 4SM BR FEW002 02/01 A3013 RMK AO2 SLP213 T00220011
Loading
Personal Weather Stations






























Interactive Weather Map New forecast layout! Learn more

10-Day Weather Forecast

Advertisements
Track Severe Weather on mobile